Main page
METAR-TAF:

METAR-TAF

Airports :

Le Touquet – Côte d'Opale Airport

Le Touquet, France

latitude: 50-30-53N, longitude: 001-37-39E, elevation: 6 m

Current weather observation

The report was made 44 minutes ago, at 04:00 UTC
Wind 4 kt from the South/Southeast
Temperature 13°C
Humidity 94%
Pressure 1015 hPa
Visibility: 2900 m
mist

METAR: LFAT 220400Z AUTO 15004KT 2900 BR NSC 13/12 Q1015

Time: 06:44 (04:44 UTC)

Forecast

The report was made 14 hours and 44 minutes ago, at 14:00 UTC
Forecast valid from 21 at 15 UTC to 21 at 24 UTC
Wind 8 kt from the Northwest
Visibility 10 km or more
no clouds below 1500 m and no cumulonimbus

TAF: LFAT 211400Z 2115/2124 32008KT CAVOK

Weather observations and forecasts of more than 4000 airports (METAR and TAF reports).

The available stations are represented by yellow and red dots on the map.

Hover mouse over dot to see the name of the station.

Then click to see weather observations and forecasts.

To change the map : click on the green buttons with a black cross to zoom in, on the green button with a dash to zoom out, or on the green arrows for adjacent maps.


METAR-TAF: